PWSweather.com
Personal Weather Stations
Station Observations
KCOBOOMER
Belmont, Pueblo, CO 81001

BelmontPueblo, CO 81001

Lat: 38.2977486, Lon: -104.5754318

Elevation: 4795

Station Type: Davis Vantage Pro 2

http://www.puebloweather.net

Latest ConditionsUpdated 10:10:03 PM MDT Friday, Aug 29, 2014
Currently Today's Max Today's Min Today's Average
Temperature 64.9°F18.3°C 88.1°F31.2°C 50.3°F10.2°C 67.3°F19.6°C
Dew Point 50.7°F10.4°C 52.2°F11.2°C 37.8°F3.2°C 46.4°F8.0°C
Winds 6.0 mph SW9.7 kmh SW 38.0 mph NNW61.2 kmh NNW - 4.4 mph 7.1 kmh
Wind Gusts -- -- - -
Humidity 60% 87% 18% 55%
Pressure 29.96 in1014.6 mb 29.97 in1014.9 mb 29.78 in1008.5 mb -
Hour Temp Dew Point Humidity Winds Wind Gusts Pressure Precip Precip Rate Daily Precip Total
10:10 PM 64.9°F18.3°C 50.7°F10.4°C 60% 6.0 mph SW9.7 kmh SW -- 29.96 in1014.6 mb 0.00 in0.0 mm 0.00 in/hr0.0 mm/hr 0.00 in0.0 mm
10:05 PM 65.2°F18.4°C 51.0°F10.6°C 60% 5.0 mph W8.0 kmh W -- 29.95 in1014.2 mb 0.00 in0.0 mm 0.00 in/hr0.0 mm/hr 0.00 in0.0 mm
10:00 PM 65.5°F18.6°C 50.8°F10.4°C 59% 2.0 mph WNW3.2 kmh WNW -- 29.95 in1014.2 mb 0.00 in0.0 mm 0.00 in/hr0.0 mm/hr 0.00 in0.0 mm
09:55 PM 65.9°F18.8°C 50.7°F10.4°C 58% Calm Calm -- 29.95 in1014.2 mb 0.00 in0.0 mm 0.00 in/hr0.0 mm/hr 0.00 in0.0 mm
09:50 PM 66.3°F19.1°C 51.1°F10.6°C 58% Calm Calm -- 29.95 in1014.2 mb 0.00 in0.0 mm 0.00 in/hr0.0 mm/hr 0.00 in0.0 mm
09:45 PM 66.5°F19.2°C 50.8°F10.4°C 57% 4.0 mph NNW6.4 kmh NNW -- 29.96 in1014.6 mb 0.00 in0.0 mm 0.00 in/hr0.0 mm/hr 0.00 in0.0 mm
09:40 PM 66.7°F19.3°C 49.6°F9.8°C 54% 2.0 mph NNW3.2 kmh NNW -- 29.96 in1014.6 mb 0.00 in0.0 mm 0.00 in/hr0.0 mm/hr 0.00 in0.0 mm
09:35 PM 66.6°F19.2°C 49.0°F9.4°C 53% 11.0 mph NW17.7 kmh NW -- 29.97 in1014.9 mb 0.00 in0.0 mm 0.00 in/hr0.0 mm/hr 0.00 in0.0 mm
09:30 PM 66.6°F19.2°C 49.5°F9.7°C 54% 8.0 mph NNW12.9 kmh NNW -- 29.96 in1014.6 mb 0.00 in0.0 mm 0.00 in/hr0.0 mm/hr 0.00 in0.0 mm
09:25 PM 66.7°F19.3°C 50.0°F10.0°C 55% 10.0 mph NNW16.1 kmh NNW -- 29.97 in1014.9 mb 0.00 in0.0 mm 0.00 in/hr0.0 mm/hr 0.00 in0.0 mm
09:20 PM 67.0°F19.4°C 49.8°F9.9°C 54% 4.0 mph NW6.4 kmh NW -- 29.97 in1014.9 mb 0.00 in0.0 mm 0.00 in/hr0.0 mm/hr 0.00 in0.0 mm
09:15 PM 67.1°F19.5°C 48.9°F9.4°C 52% 2.0 mph NNW3.2 kmh NNW -- 29.96 in1014.6 mb 0.00 in0.0 mm 0.00 in/hr0.0 mm/hr 0.00 in0.0 mm
09:10 PM 67.1°F19.5°C 48.9°F9.4°C 52% 2.0 mph WNW3.2 kmh WNW -- 29.94 in1013.9 mb 0.00 in0.0 mm 0.00 in/hr0.0 mm/hr 0.00 in0.0 mm
09:05 PM 67.1°F19.5°C 48.4°F9.1°C 51% 6.0 mph N9.7 kmh N -- 29.94 in1013.9 mb 0.00 in0.0 mm 0.00 in/hr0.0 mm/hr 0.00 in0.0 mm
09:00 PM 67.2°F19.6°C 48.5°F9.2°C 51% Calm Calm -- 29.94 in1013.9 mb 0.00 in0.0 mm 0.00 in/hr0.0 mm/hr 0.00 in0.0 mm
08:55 PM 67.2°F19.6°C 48.5°F9.2°C 51% Calm Calm -- 29.94 in1013.9 mb 0.00 in0.0 mm 0.00 in/hr0.0 mm/hr 0.00 in0.0 mm
08:50 PM 67.4°F19.7°C 48.7°F9.3°C 51% 4.0 mph N6.4 kmh N -- 29.93 in1013.5 mb 0.00 in0.0 mm 0.00 in/hr0.0 mm/hr 0.00 in0.0 mm
08:45 PM 67.5°F19.7°C 48.2°F9.0°C 50% Calm Calm -- 29.93 in1013.5 mb 0.00 in0.0 mm 0.00 in/hr0.0 mm/hr 0.00 in0.0 mm
08:40 PM 67.5°F19.7°C 48.2°F9.0°C 50% 2.0 mph N3.2 kmh N -- 29.92 in1013.2 mb 0.00 in0.0 mm 0.00 in/hr0.0 mm/hr 0.00 in0.0 mm
08:35 PM 67.5°F19.7°C 48.2°F9.0°C 50% 9.0 mph NNE14.5 kmh NNE -- 29.92 in1013.2 mb 0.00 in0.0 mm 0.00 in/hr0.0 mm/hr 0.00 in0.0 mm
08:30 PM 67.5°F19.7°C 48.2°F9.0°C 50% 3.0 mph NE4.8 kmh NE -- 29.91 in1012.9 mb 0.00 in0.0 mm 0.00 in/hr0.0 mm/hr 0.00 in0.0 mm
08:25 PM 67.4°F19.7°C 48.1°F8.9°C 50% 2.0 mph NNW3.2 kmh NNW -- 29.91 in1012.9 mb 0.00 in0.0 mm 0.00 in/hr0.0 mm/hr 0.00 in0.0 mm
08:20 PM 67.4°F19.7°C 48.1°F8.9°C 50% 12.0 mph NE19.3 kmh NE -- 29.90 in1012.5 mb 0.00 in0.0 mm 0.00 in/hr0.0 mm/hr 0.00 in0.0 mm
08:15 PM 67.3°F19.6°C 48.0°F8.9°C 50% 4.0 mph ENE6.4 kmh ENE -- 29.90 in1012.5 mb 0.00 in0.0 mm 0.00 in/hr0.0 mm/hr 0.00 in0.0 mm
08:10 PM 67.2°F19.6°C 48.5°F9.2°C 51% 5.0 mph NE8.0 kmh NE -- 29.90 in1012.5 mb 0.00 in0.0 mm 0.00 in/hr0.0 mm/hr 0.00 in0.0 mm
08:05 PM 67.1°F19.5°C 48.9°F9.4°C 52% 2.0 mph NE3.2 kmh NE -- 29.90 in1012.5 mb 0.00 in0.0 mm 0.00 in/hr0.0 mm/hr 0.00 in0.0 mm
08:00 PM 66.9°F19.4°C 49.2°F9.6°C 53% 4.0 mph NE6.4 kmh NE -- 29.89 in1012.2 mb 0.00 in0.0 mm 0.00 in/hr0.0 mm/hr 0.00 in0.0 mm
07:55 PM 66.8°F19.3°C 49.6°F9.8°C 54% 10.0 mph N16.1 kmh N -- 29.89 in1012.2 mb 0.00 in0.0 mm 0.00 in/hr0.0 mm/hr 0.00 in0.0 mm
07:50 PM 66.9°F19.4°C 50.2°F10.1°C 55% 12.0 mph NNE19.3 kmh NNE -- 29.89 in1012.2 mb 0.00 in0.0 mm 0.00 in/hr0.0 mm/hr 0.00 in0.0 mm
07:45 PM 67.0°F19.4°C 50.3°F10.2°C 55% 14.0 mph NNW22.5 kmh NNW -- 29.89 in1012.2 mb 0.00 in0.0 mm 0.00 in/hr0.0 mm/hr 0.00 in0.0 mm
07:40 PM 67.6°F19.8°C 50.4°F10.2°C 54% 22.0 mph NNW35.4 kmh NNW -- 29.89 in1012.2 mb 0.00 in0.0 mm 0.00 in/hr0.0 mm/hr 0.00 in0.0 mm
07:35 PM 68.6°F20.3°C 50.8°F10.4°C 53% 8.0 mph N12.9 kmh N -- 29.89 in1012.2 mb 0.00 in0.0 mm 0.00 in/hr0.0 mm/hr 0.00 in0.0 mm
07:30 PM 69.1°F20.6°C 49.2°F9.6°C 49% 9.0 mph NE14.5 kmh NE -- 29.89 in1012.2 mb 0.00 in0.0 mm 0.00 in/hr0.0 mm/hr 0.00 in0.0 mm
07:25 PM 69.3°F20.7°C 48.2°F9.0°C 47% 11.0 mph ENE17.7 kmh ENE -- 29.90 in1012.5 mb 0.00 in0.0 mm 0.00 in/hr0.0 mm/hr 0.00 in0.0 mm
07:20 PM 69.4°F20.8°C 48.3°F9.1°C 47% 32.0 mph N51.5 kmh N -- 29.90 in1012.5 mb 0.00 in0.0 mm 0.00 in/hr0.0 mm/hr 0.00 in0.0 mm
07:15 PM 69.4°F20.8°C 48.3°F9.1°C 47% 20.0 mph NNW32.2 kmh NNW -- 29.90 in1012.5 mb 0.00 in0.0 mm 0.00 in/hr0.0 mm/hr 0.00 in0.0 mm
07:10 PM 69.4°F20.8°C 48.3°F9.1°C 47% 20.0 mph N32.2 kmh N -- 29.89 in1012.2 mb 0.00 in0.0 mm 0.00 in/hr0.0 mm/hr 0.00 in0.0 mm
07:05 PM 69.5°F20.8°C 49.0°F9.4°C 48% 16.0 mph NNW25.7 kmh NNW -- 29.89 in1012.2 mb 0.00 in0.0 mm 0.00 in/hr0.0 mm/hr 0.00 in0.0 mm
07:00 PM 69.7°F20.9°C 49.2°F9.6°C 48% Calm Calm -- 29.88 in1011.9 mb 0.00 in0.0 mm 0.00 in/hr0.0 mm/hr 0.00 in0.0 mm
06:55 PM 69.9°F21.1°C 49.3°F9.6°C 48% 13.0 mph NNW20.9 kmh NNW -- 29.87 in1011.5 mb 0.00 in0.0 mm 0.00 in/hr0.0 mm/hr 0.00 in0.0 mm
06:50 PM 69.8°F21.0°C 48.7°F9.3°C 47% 8.0 mph NNW12.9 kmh NNW -- 29.87 in1011.5 mb 0.00 in0.0 mm 0.00 in/hr0.0 mm/hr 0.00 in0.0 mm
06:45 PM 69.5°F20.8°C 47.8°F8.8°C 46% 28.0 mph NW45.1 kmh NW -- 29.84 in1010.5 mb 0.00 in0.0 mm 0.00 in/hr0.0 mm/hr 0.00 in0.0 mm
06:40 PM 69.2°F20.7°C 48.1°F8.9°C 47% 8.0 mph N12.9 kmh N -- 29.84 in1010.5 mb 0.00 in0.0 mm 0.00 in/hr0.0 mm/hr 0.00 in0.0 mm
06:35 PM 68.9°F20.5°C 48.4°F9.1°C 48% 20.0 mph N32.2 kmh N -- 29.83 in1010.2 mb 0.00 in0.0 mm 0.00 in/hr0.0 mm/hr 0.00 in0.0 mm
06:30 PM 68.5°F20.3°C 48.6°F9.2°C 49% 35.0 mph N56.3 kmh N -- 29.83 in1010.2 mb 0.00 in0.0 mm 0.00 in/hr0.0 mm/hr 0.00 in0.0 mm
06:25 PM 68.7°F20.4°C 49.9°F9.9°C 51% 20.0 mph NNW32.2 kmh NNW -- 29.82 in1009.8 mb 0.00 in0.0 mm 0.00 in/hr0.0 mm/hr 0.00 in0.0 mm
06:20 PM 69.5°F20.8°C 51.1°F10.6°C 52% 22.0 mph N35.4 kmh N -- 29.82 in1009.8 mb 0.00 in0.0 mm 0.00 in/hr0.0 mm/hr 0.00 in0.0 mm
06:15 PM 70.8°F21.6°C 50.2°F10.1°C 48% 38.0 mph NNW61.2 kmh NNW -- 29.83 in1010.2 mb 0.00 in0.0 mm 0.00 in/hr0.0 mm/hr 0.00 in0.0 mm
06:10 PM 73.2°F22.9°C 51.2°F10.7°C 46% 30.0 mph N48.3 kmh N -- 29.83 in1010.2 mb 0.00 in0.0 mm 0.00 in/hr0.0 mm/hr 0.00 in0.0 mm
06:05 PM 76.1°F24.5°C 49.4°F9.7°C 39% 18.0 mph NW29.0 kmh NW -- 29.83 in1010.2 mb 0.00 in0.0 mm 0.00 in/hr0.0 mm/hr 0.00 in0.0 mm
06:00 PM 80.3°F26.8°C 47.8°F8.8°C 32% 35.0 mph NW56.3 kmh NW -- 29.82 in1009.8 mb 0.00 in0.0 mm 0.00 in/hr0.0 mm/hr 0.00 in0.0 mm
05:55 PM 84.3°F29.1°C 44.7°F7.1°C 25% 32.0 mph NNW51.5 kmh NNW -- 29.83 in1010.2 mb 0.00 in0.0 mm 0.00 in/hr0.0 mm/hr 0.00 in0.0 mm
05:50 PM 85.5°F29.7°C 39.9°F4.4°C 20% 12.0 mph NW19.3 kmh NW -- 29.81 in1009.5 mb 0.00 in0.0 mm 0.00 in/hr0.0 mm/hr 0.00 in0.0 mm
05:45 PM 86.0°F30.0°C 40.3°F4.6°C 20% 2.0 mph E3.2 kmh E -- 29.80 in1009.1 mb 0.00 in0.0 mm 0.00 in/hr0.0 mm/hr 0.00 in0.0 mm
05:40 PM 86.2°F30.1°C 40.5°F4.7°C 20% Calm Calm -- 29.80 in1009.1 mb 0.00 in0.0 mm 0.00 in/hr0.0 mm/hr 0.00 in0.0 mm
05:35 PM 86.8°F30.4°C 42.2°F5.7°C 21% Calm Calm -- 29.79 in1008.8 mb 0.00 in0.0 mm 0.00 in/hr0.0 mm/hr 0.00 in0.0 mm
05:30 PM 87.0°F30.6°C 39.8°F4.3°C 19% Calm Calm -- 29.79 in1008.8 mb 0.00 in0.0 mm 0.00 in/hr0.0 mm/hr 0.00 in0.0 mm
05:25 PM 86.8°F30.4°C 38.3°F3.5°C 18% Calm Calm -- 29.79 in1008.8 mb 0.00 in0.0 mm 0.00 in/hr0.0 mm/hr 0.00 in0.0 mm
05:20 PM 87.3°F30.7°C 40.1°F4.5°C 19% Calm Calm -- 29.79 in1008.8 mb 0.00 in0.0 mm 0.00 in/hr0.0 mm/hr 0.00 in0.0 mm
05:15 PM 87.5°F30.8°C 40.2°F4.6°C 19% 3.0 mph E4.8 kmh E -- 29.79 in1008.8 mb 0.00 in0.0 mm 0.00 in/hr0.0 mm/hr 0.00 in0.0 mm
05:10 PM 87.0°F30.6°C 38.4°F3.6°C 18% Calm Calm -- 29.79 in1008.8 mb 0.00 in0.0 mm 0.00 in/hr0.0 mm/hr 0.00 in0.0 mm
05:05 PM 87.3°F30.7°C 38.7°F3.7°C 18% 5.0 mph ENE8.0 kmh ENE -- 29.79 in1008.8 mb 0.00 in0.0 mm 0.00 in/hr0.0 mm/hr 0.00 in0.0 mm
05:00 PM 87.9°F31.1°C 40.5°F4.7°C 19% 5.0 mph E8.0 kmh E -- 29.79 in1008.8 mb 0.00 in0.0 mm 0.00 in/hr0.0 mm/hr 0.00 in0.0 mm
04:55 PM 87.4°F30.8°C 38.7°F3.7°C 18% Calm Calm -- 29.78 in1008.5 mb 0.00 in0.0 mm 0.00 in/hr0.0 mm/hr 0.00 in0.0 mm
04:50 PM 86.3°F30.2°C 40.6°F4.8°C 20% 1.0 mph SSW1.6 kmh SSW -- 29.78 in1008.5 mb 0.00 in0.0 mm 0.00 in/hr0.0 mm/hr 0.00 in0.0 mm
04:45 PM 86.5°F30.3°C 42.0°F5.6°C 21% 2.0 mph SE3.2 kmh SE -- 29.79 in1008.8 mb 0.00 in0.0 mm 0.00 in/hr0.0 mm/hr 0.00 in0.0 mm
04:40 PM 87.4°F30.8°C 40.1°F4.5°C 19% Calm Calm -- 29.79 in1008.8 mb 0.00 in0.0 mm 0.00 in/hr0.0 mm/hr 0.00 in0.0 mm
04:35 PM 87.0°F30.6°C 41.1°F5.1°C 20% Calm Calm -- 29.79 in1008.8 mb 0.00 in0.0 mm 0.00 in/hr0.0 mm/hr 0.00 in0.0 mm
04:30 PM 87.4°F30.8°C 40.1°F4.5°C 19% 2.0 mph E3.2 kmh E -- 29.79 in1008.8 mb 0.00 in0.0 mm 0.00 in/hr0.0 mm/hr 0.00 in0.0 mm
04:25 PM 87.2°F30.7°C 40.0°F4.4°C 19% Calm Calm -- 29.79 in1008.8 mb 0.00 in0.0 mm 0.00 in/hr0.0 mm/hr 0.00 in0.0 mm
04:20 PM 87.0°F30.6°C 39.8°F4.3°C 19% 10.0 mph ENE16.1 kmh ENE -- 29.79 in1008.8 mb 0.00 in0.0 mm 0.00 in/hr0.0 mm/hr 0.00 in0.0 mm
04:15 PM 87.4°F30.8°C 40.1°F4.5°C 19% 3.0 mph NE4.8 kmh NE -- 29.79 in1008.8 mb 0.00 in0.0 mm 0.00 in/hr0.0 mm/hr 0.00 in0.0 mm
04:10 PM 87.4°F30.8°C 41.5°F5.3°C 20% 4.0 mph E6.4 kmh E -- 29.79 in1008.8 mb 0.00 in0.0 mm 0.00 in/hr0.0 mm/hr 0.00 in0.0 mm
04:05 PM 87.4°F30.8°C 40.1°F4.5°C 19% 5.0 mph NE8.0 kmh NE -- 29.79 in1008.8 mb 0.00 in0.0 mm 0.00 in/hr0.0 mm/hr 0.00 in0.0 mm
04:00 PM 88.1°F31.2°C 39.3°F4.1°C 18% 8.0 mph E12.9 kmh E -- 29.79 in1008.8 mb 0.00 in0.0 mm 0.00 in/hr0.0 mm/hr 0.00 in0.0 mm
03:55 PM 87.1°F30.6°C 38.5°F3.6°C 18% Calm Calm -- 29.79 in1008.8 mb 0.00 in0.0 mm 0.00 in/hr0.0 mm/hr 0.00 in0.0 mm
03:50 PM 87.1°F30.6°C 39.9°F4.4°C 19% 4.0 mph ENE6.4 kmh ENE -- 29.79 in1008.8 mb 0.00 in0.0 mm 0.00 in/hr0.0 mm/hr 0.00 in0.0 mm
03:45 PM 87.1°F30.6°C 39.9°F4.4°C 19% 2.0 mph NE3.2 kmh NE -- 29.80 in1009.1 mb 0.00 in0.0 mm 0.00 in/hr0.0 mm/hr 0.00 in0.0 mm
03:40 PM 87.7°F30.9°C 40.4°F4.7°C 19% 9.0 mph ENE14.5 kmh ENE -- 29.80 in1009.1 mb 0.00 in0.0 mm 0.00 in/hr0.0 mm/hr 0.00 in0.0 mm
03:35 PM 87.7°F30.9°C 40.4°F4.7°C 19% Calm Calm -- 29.80 in1009.1 mb 0.00 in0.0 mm 0.00 in/hr0.0 mm/hr 0.00 in0.0 mm
03:30 PM 87.3°F30.7°C 40.1°F4.5°C 19% Calm Calm -- 29.80 in1009.1 mb 0.00 in0.0 mm 0.00 in/hr0.0 mm/hr 0.00 in0.0 mm
03:25 PM 86.7°F30.4°C 39.6°F4.2°C 19% 2.0 mph E3.2 kmh E -- 29.80 in1009.1 mb 0.00 in0.0 mm 0.00 in/hr0.0 mm/hr 0.00 in0.0 mm
03:20 PM 86.6°F30.3°C 39.5°F4.2°C 19% 1.0 mph ESE1.6 kmh ESE -- 29.81 in1009.5 mb 0.00 in0.0 mm 0.00 in/hr0.0 mm/hr 0.00 in0.0 mm
03:15 PM 86.4°F30.2°C 40.6°F4.8°C 20% Calm Calm -- 29.81 in1009.5 mb 0.00 in0.0 mm 0.00 in/hr0.0 mm/hr 0.00 in0.0 mm
03:10 PM 85.9°F29.9°C 43.9°F6.6°C 23% 1.0 mph SSW1.6 kmh SSW -- 29.81 in1009.5 mb 0.00 in0.0 mm 0.00 in/hr0.0 mm/hr 0.00 in0.0 mm
03:05 PM 85.4°F29.7°C 43.4°F6.3°C 23% 5.0 mph S8.0 kmh S -- 29.81 in1009.5 mb 0.00 in0.0 mm 0.00 in/hr0.0 mm/hr 0.00 in0.0 mm
03:00 PM 84.8°F29.3°C 40.6°F4.8°C 21% 2.0 mph SE3.2 kmh SE -- 29.81 in1009.5 mb 0.00 in0.0 mm 0.00 in/hr0.0 mm/hr 0.00 in0.0 mm
02:55 PM 84.7°F29.3°C 42.8°F6.0°C 23% 3.0 mph SW4.8 kmh SW -- 29.81 in1009.5 mb 0.00 in0.0 mm 0.00 in/hr0.0 mm/hr 0.00 in0.0 mm
02:50 PM 85.6°F29.8°C 41.2°F5.1°C 21% 17.0 mph SSW27.4 kmh SSW -- 29.82 in1009.8 mb 0.00 in0.0 mm 0.00 in/hr0.0 mm/hr 0.00 in0.0 mm
02:45 PM 85.7°F29.8°C 40.1°F4.5°C 20% 5.0 mph SE8.0 kmh SE -- 29.82 in1009.8 mb 0.00 in0.0 mm 0.00 in/hr0.0 mm/hr 0.00 in0.0 mm
02:40 PM 84.3°F29.1°C 41.4°F5.2°C 22% 3.0 mph E4.8 kmh E -- 29.82 in1009.8 mb 0.00 in0.0 mm 0.00 in/hr0.0 mm/hr 0.00 in0.0 mm
02:35 PM 83.7°F28.7°C 39.7°F4.3°C 21% Calm Calm -- 29.82 in1009.8 mb 0.00 in0.0 mm 0.00 in/hr0.0 mm/hr 0.00 in0.0 mm
02:30 PM 83.7°F28.7°C 40.9°F4.9°C 22% Calm Calm -- 29.82 in1009.8 mb 0.00 in0.0 mm 0.00 in/hr0.0 mm/hr 0.00 in0.0 mm
02:25 PM 83.4°F28.6°C 40.6°F4.8°C 22% Calm Calm -- 29.83 in1010.2 mb 0.00 in0.0 mm 0.00 in/hr0.0 mm/hr 0.00 in0.0 mm
02:20 PM 83.9°F28.8°C 41.0°F5.0°C 22% 3.0 mph W4.8 kmh W -- 29.83 in1010.2 mb 0.00 in0.0 mm 0.00 in/hr0.0 mm/hr 0.00 in0.0 mm
02:15 PM 84.9°F29.4°C 39.4°F4.1°C 20% 2.0 mph SW3.2 kmh SW -- 29.82 in1009.8 mb 0.00 in0.0 mm 0.00 in/hr0.0 mm/hr 0.00 in0.0 mm
02:10 PM 86.1°F30.1°C 40.4°F4.7°C 20% Calm Calm -- 29.83 in1010.2 mb 0.00 in0.0 mm 0.00 in/hr0.0 mm/hr 0.00 in0.0 mm
02:05 PM 86.4°F30.2°C 39.3°F4.1°C 19% 5.0 mph N8.0 kmh N -- 29.84 in1010.5 mb 0.00 in0.0 mm 0.00 in/hr0.0 mm/hr 0.00 in0.0 mm
02:00 PM 84.8°F29.3°C 38.0°F3.3°C 19% Calm Calm -- 29.84 in1010.5 mb 0.00 in0.0 mm 0.00 in/hr0.0 mm/hr 0.00 in0.0 mm
01:55 PM 85.3°F29.6°C 41.0°F5.0°C 21% 2.0 mph NNW3.2 kmh NNW -- 29.84 in1010.5 mb 0.00 in0.0 mm 0.00 in/hr0.0 mm/hr 0.00 in0.0 mm
01:50 PM 85.0°F29.4°C 39.5°F4.2°C 20% Calm Calm -- 29.84 in1010.5 mb 0.00 in0.0 mm 0.00 in/hr0.0 mm/hr 0.00 in0.0 mm
01:45 PM 85.2°F29.6°C 40.9°F4.9°C 21% Calm Calm -- 29.84 in1010.5 mb 0.00 in0.0 mm 0.00 in/hr0.0 mm/hr 0.00 in0.0 mm
01:40 PM 86.1°F30.1°C 40.4°F4.7°C 20% 2.0 mph W3.2 kmh W -- 29.85 in1010.8 mb 0.00 in0.0 mm 0.00 in/hr0.0 mm/hr 0.00 in0.0 mm
01:35 PM 86.6°F30.3°C 39.5°F4.2°C 19% 4.0 mph ENE6.4 kmh ENE -- 29.85 in1010.8 mb 0.00 in0.0 mm 0.00 in/hr0.0 mm/hr 0.00 in0.0 mm
01:30 PM 85.4°F29.7°C 38.5°F3.6°C 19% 3.0 mph NNE4.8 kmh NNE -- 29.85 in1010.8 mb 0.00 in0.0 mm 0.00 in/hr0.0 mm/hr 0.00 in0.0 mm
01:25 PM 86.2°F30.1°C 37.8°F3.2°C 18% 1.0 mph N1.6 kmh N -- 29.85 in1010.8 mb 0.00 in0.0 mm 0.00 in/hr0.0 mm/hr 0.00 in0.0 mm
01:20 PM 85.7°F29.8°C 40.1°F4.5°C 20% 3.0 mph NE4.8 kmh NE -- 29.85 in1010.8 mb 0.00 in0.0 mm 0.00 in/hr0.0 mm/hr 0.00 in0.0 mm
01:15 PM 85.5°F29.7°C 39.9°F4.4°C 20% 1.0 mph NE1.6 kmh NE -- 29.85 in1010.8 mb 0.00 in0.0 mm 0.00 in/hr0.0 mm/hr 0.00 in0.0 mm
01:10 PM 84.6°F29.2°C 37.8°F3.2°C 19% 2.0 mph N3.2 kmh N -- 29.85 in1010.8 mb 0.00 in0.0 mm 0.00 in/hr0.0 mm/hr 0.00 in0.0 mm
01:05 PM 84.3°F29.1°C 41.4°F5.2°C 22% 2.0 mph WSW3.2 kmh WSW -- 29.85 in1010.8 mb 0.00 in0.0 mm 0.00 in/hr0.0 mm/hr 0.00 in0.0 mm
01:00 PM 85.2°F29.6°C 40.9°F4.9°C 21% 15.0 mph NNW24.1 kmh NNW -- 29.86 in1011.2 mb 0.00 in0.0 mm 0.00 in/hr0.0 mm/hr 0.00 in0.0 mm
12:55 PM 85.4°F29.7°C 39.8°F4.3°C 20% 3.0 mph NE4.8 kmh NE -- 29.86 in1011.2 mb 0.00 in0.0 mm 0.00 in/hr0.0 mm/hr 0.00 in0.0 mm
12:50 PM 85.0°F29.4°C 41.9°F5.5°C 22% 2.0 mph NW3.2 kmh NW -- 29.86 in1011.2 mb 0.00 in0.0 mm 0.00 in/hr0.0 mm/hr 0.00 in0.0 mm
12:45 PM 85.0°F29.4°C 41.9°F5.5°C 22% 2.0 mph WSW3.2 kmh WSW -- 29.86 in1011.2 mb 0.00 in0.0 mm 0.00 in/hr0.0 mm/hr 0.00 in0.0 mm
12:40 PM 82.7°F28.2°C 40.0°F4.4°C 22% Calm Calm -- 29.86 in1011.2 mb 0.00 in0.0 mm 0.00 in/hr0.0 mm/hr 0.00 in0.0 mm
12:35 PM 83.2°F28.4°C 41.6°F5.3°C 23% 4.0 mph NW6.4 kmh NW -- 29.86 in1011.2 mb 0.00 in0.0 mm 0.00 in/hr0.0 mm/hr 0.00 in0.0 mm
10:55 AM 78.2°F25.7°C 41.5°F5.3°C 27% 5.0 mph SSW8.0 kmh SSW -- 29.90 in1012.5 mb 0.00 in0.0 mm 0.00 in/hr0.0 mm/hr 0.00 in0.0 mm
10:50 AM 77.9°F25.5°C 41.3°F5.2°C 27% 10.0 mph SSW16.1 kmh SSW -- 29.90 in1012.5 mb 0.00 in0.0 mm 0.00 in/hr0.0 mm/hr 0.00 in0.0 mm
10:45 AM 78.0°F25.6°C 43.2°F6.2°C 29% 4.0 mph SW6.4 kmh SW -- 29.90 in1012.5 mb 0.00 in0.0 mm 0.00 in/hr0.0 mm/hr 0.00 in0.0 mm
10:40 AM 77.6°F25.3°C 43.7°F6.5°C 30% 2.0 mph WSW3.2 kmh WSW -- 29.90 in1012.5 mb 0.00 in0.0 mm 0.00 in/hr0.0 mm/hr 0.00 in0.0 mm
10:35 AM 77.0°F25.0°C 42.3°F5.7°C 29% 5.0 mph SW8.0 kmh SW -- 29.90 in1012.5 mb 0.00 in0.0 mm 0.00 in/hr0.0 mm/hr 0.00 in0.0 mm
10:30 AM 77.0°F25.0°C 44.9°F7.2°C 32% 2.0 mph WSW3.2 kmh WSW -- 29.90 in1012.5 mb 0.00 in0.0 mm 0.00 in/hr0.0 mm/hr 0.00 in0.0 mm
10:25 AM 76.6°F24.8°C 46.2°F7.9°C 34% Calm Calm -- 29.90 in1012.5 mb 0.00 in0.0 mm 0.00 in/hr0.0 mm/hr 0.00 in0.0 mm
10:20 AM 76.0°F24.4°C 45.6°F7.6°C 34% 5.0 mph WSW8.0 kmh WSW -- 29.91 in1012.9 mb 0.00 in0.0 mm 0.00 in/hr0.0 mm/hr 0.00 in0.0 mm
10:15 AM 75.6°F24.2°C 45.3°F7.4°C 34% 6.0 mph WSW9.7 kmh WSW -- 29.91 in1012.9 mb 0.00 in0.0 mm 0.00 in/hr0.0 mm/hr 0.00 in0.0 mm
10:10 AM 75.5°F24.2°C 45.2°F7.3°C 34% 9.0 mph SW14.5 kmh SW -- 29.91 in1012.9 mb 0.00 in0.0 mm 0.00 in/hr0.0 mm/hr 0.00 in0.0 mm
10:05 AM 74.9°F23.8°C 46.9°F8.3°C 37% 1.0 mph SSW1.6 kmh SSW -- 29.91 in1012.9 mb 0.00 in0.0 mm 0.00 in/hr0.0 mm/hr 0.00 in0.0 mm
10:00 AM 74.2°F23.4°C 47.7°F8.7°C 39% 10.0 mph SW16.1 kmh SW -- 29.91 in1012.9 mb 0.00 in0.0 mm 0.00 in/hr0.0 mm/hr 0.00 in0.0 mm
09:55 AM 73.9°F23.3°C 46.7°F8.2°C 38% 14.0 mph SW22.5 kmh SW -- 29.91 in1012.9 mb 0.00 in0.0 mm 0.00 in/hr0.0 mm/hr 0.00 in0.0 mm
09:50 AM 73.4°F23.0°C 46.3°F7.9°C 38% 16.0 mph SW25.7 kmh SW -- 29.91 in1012.9 mb 0.00 in0.0 mm 0.00 in/hr0.0 mm/hr 0.00 in0.0 mm
09:45 AM 73.2°F22.9°C 48.1°F8.9°C 41% 6.0 mph SW9.7 kmh SW -- 29.92 in1013.2 mb 0.00 in0.0 mm 0.00 in/hr0.0 mm/hr 0.00 in0.0 mm
09:40 AM 72.7°F22.6°C 48.3°F9.1°C 42% 11.0 mph SW17.7 kmh SW -- 29.91 in1012.9 mb 0.00 in0.0 mm 0.00 in/hr0.0 mm/hr 0.00 in0.0 mm
09:35 AM 72.1°F22.3°C 48.4°F9.1°C 43% 4.0 mph SW6.4 kmh SW -- 29.91 in1012.9 mb 0.00 in0.0 mm 0.00 in/hr0.0 mm/hr 0.00 in0.0 mm
09:30 AM 71.4°F21.9°C 48.4°F9.1°C 44% 3.0 mph SW4.8 kmh SW -- 29.91 in1012.9 mb 0.00 in0.0 mm 0.00 in/hr0.0 mm/hr 0.00 in0.0 mm
09:25 AM 70.9°F21.6°C 48.5°F9.2°C 45% 7.0 mph SW11.3 kmh SW -- 29.91 in1012.9 mb 0.00 in0.0 mm 0.00 in/hr0.0 mm/hr 0.00 in0.0 mm
09:20 AM 70.4°F21.3°C 48.7°F9.3°C 46% 12.0 mph SW19.3 kmh SW -- 29.91 in1012.9 mb 0.00 in0.0 mm 0.00 in/hr0.0 mm/hr 0.00 in0.0 mm
09:15 AM 69.6°F20.9°C 48.5°F9.2°C 47% 3.0 mph SSW4.8 kmh SSW -- 29.91 in1012.9 mb 0.00 in0.0 mm 0.00 in/hr0.0 mm/hr 0.00 in0.0 mm
09:10 AM 68.9°F20.5°C 49.0°F9.4°C 49% 2.0 mph WSW3.2 kmh WSW -- 29.91 in1012.9 mb 0.00 in0.0 mm 0.00 in/hr0.0 mm/hr 0.00 in0.0 mm
09:05 AM 68.2°F20.1°C 48.3°F9.1°C 49% 1.0 mph WSW1.6 kmh WSW -- 29.91 in1012.9 mb 0.00 in0.0 mm 0.00 in/hr0.0 mm/hr 0.00 in0.0 mm
09:00 AM 67.5°F19.7°C 48.8°F9.3°C 51% 9.0 mph SW14.5 kmh SW -- 29.92 in1013.2 mb 0.00 in0.0 mm 0.00 in/hr0.0 mm/hr 0.00 in0.0 mm
08:55 AM 66.9°F19.4°C 48.7°F9.3°C 52% 1.0 mph WSW1.6 kmh WSW -- 29.91 in1012.9 mb 0.00 in0.0 mm 0.00 in/hr0.0 mm/hr 0.00 in0.0 mm
08:50 AM 66.0°F18.9°C 48.9°F9.4°C 54% 6.0 mph WSW9.7 kmh WSW -- 29.91 in1012.9 mb 0.00 in0.0 mm 0.00 in/hr0.0 mm/hr 0.00 in0.0 mm
08:45 AM 64.8°F18.2°C 49.7°F9.8°C 58% 12.0 mph WNW19.3 kmh WNW -- 29.92 in1013.2 mb 0.00 in0.0 mm 0.00 in/hr0.0 mm/hr 0.00 in0.0 mm
08:40 AM 63.5°F17.5°C 49.8°F9.9°C 61% 1.0 mph WSW1.6 kmh WSW -- 29.92 in1013.2 mb 0.00 in0.0 mm 0.00 in/hr0.0 mm/hr 0.00 in0.0 mm
08:35 AM 62.6°F17.0°C 49.4°F9.7°C 62% 1.0 mph WSW1.6 kmh WSW -- 29.92 in1013.2 mb 0.00 in0.0 mm 0.00 in/hr0.0 mm/hr 0.00 in0.0 mm
08:30 AM 62.0°F16.7°C 49.7°F9.8°C 64% 2.0 mph WSW3.2 kmh WSW -- 29.92 in1013.2 mb 0.00 in0.0 mm 0.00 in/hr0.0 mm/hr 0.00 in0.0 mm
08:25 AM 61.2°F16.2°C 48.9°F9.4°C 64% 8.0 mph WSW12.9 kmh WSW -- 29.92 in1013.2 mb 0.00 in0.0 mm 0.00 in/hr0.0 mm/hr 0.00 in0.0 mm
08:20 AM 60.4°F15.8°C 48.6°F9.2°C 65% 2.0 mph W3.2 kmh W -- 29.92 in1013.2 mb 0.00 in0.0 mm 0.00 in/hr0.0 mm/hr 0.00 in0.0 mm
08:15 AM 59.4°F15.2°C 48.5°F9.2°C 67% 8.0 mph WSW12.9 kmh WSW -- 29.92 in1013.2 mb 0.00 in0.0 mm 0.00 in/hr0.0 mm/hr 0.00 in0.0 mm
08:10 AM 58.7°F14.8°C 48.2°F9.0°C 68% 4.0 mph W6.4 kmh W -- 29.92 in1013.2 mb 0.00 in0.0 mm 0.00 in/hr0.0 mm/hr 0.00 in0.0 mm
08:05 AM 57.9°F14.4°C 48.2°F9.0°C 70% 2.0 mph WSW3.2 kmh WSW -- 29.92 in1013.2 mb 0.00 in0.0 mm 0.00 in/hr0.0 mm/hr 0.00 in0.0 mm
08:00 AM 56.6°F13.7°C 47.7°F8.7°C 72% 8.0 mph WSW12.9 kmh WSW -- 29.92 in1013.2 mb 0.00 in0.0 mm 0.00 in/hr0.0 mm/hr 0.00 in0.0 mm
07:55 AM 55.8°F13.2°C 48.0°F8.9°C 75% 9.0 mph W14.5 kmh W -- 29.92 in1013.2 mb 0.00 in0.0 mm 0.00 in/hr0.0 mm/hr 0.00 in0.0 mm
07:50 AM 55.3°F12.9°C 47.9°F8.8°C 76% 3.0 mph W4.8 kmh W -- 29.92 in1013.2 mb 0.00 in0.0 mm 0.00 in/hr0.0 mm/hr 0.00 in0.0 mm
07:45 AM 54.7°F12.6°C 47.6°F8.7°C 77% 4.0 mph WSW6.4 kmh WSW -- 29.92 in1013.2 mb 0.00 in0.0 mm 0.00 in/hr0.0 mm/hr 0.00 in0.0 mm
07:40 AM 54.0°F12.2°C 47.6°F8.7°C 79% 2.0 mph NW3.2 kmh NW -- 29.92 in1013.2 mb 0.00 in0.0 mm 0.00 in/hr0.0 mm/hr 0.00 in0.0 mm
07:35 AM 53.2°F11.8°C 47.2°F8.4°C 80% Calm Calm -- 29.92 in1013.2 mb 0.00 in0.0 mm 0.00 in/hr0.0 mm/hr 0.00 in0.0 mm
07:30 AM 52.7°F11.5°C 47.0°F8.3°C 81% Calm Calm -- 29.92 in1013.2 mb 0.00 in0.0 mm 0.00 in/hr0.0 mm/hr 0.00 in0.0 mm
07:25 AM 52.3°F11.3°C 47.0°F8.3°C 82% 3.0 mph NW4.8 kmh NW -- 29.92 in1013.2 mb 0.00 in0.0 mm 0.00 in/hr0.0 mm/hr 0.00 in0.0 mm
07:20 AM 52.1°F11.2°C 46.8°F8.2°C 82% 4.0 mph NW6.4 kmh NW -- 29.92 in1013.2 mb 0.00 in0.0 mm 0.00 in/hr0.0 mm/hr 0.00 in0.0 mm
07:15 AM 51.8°F11.0°C 46.5°F8.1°C 82% 1.0 mph NW1.6 kmh NW -- 29.92 in1013.2 mb 0.00 in0.0 mm 0.00 in/hr0.0 mm/hr 0.00 in0.0 mm
07:10 AM 51.6°F10.9°C 46.3°F7.9°C 82% Calm Calm -- 29.92 in1013.2 mb 0.00 in0.0 mm 0.00 in/hr0.0 mm/hr 0.00 in0.0 mm
07:05 AM 51.3°F10.7°C 46.3°F7.9°C 83% 1.0 mph WSW1.6 kmh WSW -- 29.92 in1013.2 mb 0.00 in0.0 mm 0.00 in/hr0.0 mm/hr 0.00 in0.0 mm
07:00 AM 51.2°F10.7°C 46.2°F7.9°C 83% Calm Calm -- 29.91 in1012.9 mb 0.00 in0.0 mm 0.00 in/hr0.0 mm/hr 0.00 in0.0 mm
06:55 AM 51.0°F10.6°C 46.0°F7.8°C 83% 2.0 mph NNW3.2 kmh NNW -- 29.91 in1012.9 mb 0.00 in0.0 mm 0.00 in/hr0.0 mm/hr 0.00 in0.0 mm
06:50 AM 51.1°F10.6°C 46.1°F7.8°C 83% Calm Calm -- 29.91 in1012.9 mb 0.00 in0.0 mm 0.00 in/hr0.0 mm/hr 0.00 in0.0 mm
06:45 AM 51.0°F10.6°C 46.0°F7.8°C 83% Calm Calm -- 29.90 in1012.5 mb 0.00 in0.0 mm 0.00 in/hr0.0 mm/hr 0.00 in0.0 mm
06:40 AM 50.8°F10.4°C 46.2°F7.9°C 84% 1.0 mph NW1.6 kmh NW -- 29.90 in1012.5 mb 0.00 in0.0 mm 0.00 in/hr0.0 mm/hr 0.00 in0.0 mm
06:35 AM 50.9°F10.5°C 46.3°F7.9°C 84% Calm Calm -- 29.90 in1012.5 mb 0.00 in0.0 mm 0.00 in/hr0.0 mm/hr 0.00 in0.0 mm
06:30 AM 50.9°F10.5°C 46.3°F7.9°C 84% Calm Calm -- 29.90 in1012.5 mb 0.00 in0.0 mm 0.00 in/hr0.0 mm/hr 0.00 in0.0 mm
06:25 AM 51.0°F10.6°C 46.3°F7.9°C 84% 2.0 mph NW3.2 kmh NW -- 29.90 in1012.5 mb 0.00 in0.0 mm 0.00 in/hr0.0 mm/hr 0.00 in0.0 mm
06:20 AM 51.0°F10.6°C 46.3°F7.9°C 84% Calm Calm -- 29.90 in1012.5 mb 0.00 in0.0 mm 0.00 in/hr0.0 mm/hr 0.00 in0.0 mm
06:15 AM 50.8°F10.4°C 46.5°F8.1°C 85% Calm Calm -- 29.89 in1012.2 mb 0.00 in0.0 mm 0.00 in/hr0.0 mm/hr 0.00 in0.0 mm
06:10 AM 50.3°F10.2°C 46.0°F7.8°C 85% Calm Calm -- 29.90 in1012.5 mb 0.00 in0.0 mm 0.00 in/hr0.0 mm/hr 0.00 in0.0 mm
06:05 AM 50.3°F10.2°C 46.0°F7.8°C 85% Calm Calm -- 29.89 in1012.2 mb 0.00 in0.0 mm 0.00 in/hr0.0 mm/hr 0.00 in0.0 mm
06:00 AM 50.3°F10.2°C 46.3°F7.9°C 86% Calm Calm -- 29.89 in1012.2 mb 0.00 in0.0 mm 0.00 in/hr0.0 mm/hr 0.00 in0.0 mm
05:55 AM 50.3°F10.2°C 46.3°F7.9°C 86% Calm Calm -- 29.89 in1012.2 mb 0.00 in0.0 mm 0.00 in/hr0.0 mm/hr 0.00 in0.0 mm
05:50 AM 50.4°F10.2°C 46.4°F8.0°C 86% Calm Calm -- 29.89 in1012.2 mb 0.00 in0.0 mm 0.00 in/hr0.0 mm/hr 0.00 in0.0 mm
05:45 AM 50.4°F10.2°C 46.4°F8.0°C 86% Calm Calm -- 29.89 in1012.2 mb 0.00 in0.0 mm 0.00 in/hr0.0 mm/hr 0.00 in0.0 mm
05:40 AM 50.4°F10.2°C 46.4°F8.0°C 86% 2.0 mph NNW3.2 kmh NNW -- 29.89 in1012.2 mb 0.00 in0.0 mm 0.00 in/hr0.0 mm/hr 0.00 in0.0 mm
05:35 AM 50.5°F10.3°C 46.5°F8.1°C 86% 1.0 mph NNW1.6 kmh NNW -- 29.89 in1012.2 mb 0.00 in0.0 mm 0.00 in/hr0.0 mm/hr 0.00 in0.0 mm
05:30 AM 50.6°F10.3°C 46.6°F8.1°C 86% Calm Calm -- 29.89 in1012.2 mb 0.00 in0.0 mm 0.00 in/hr0.0 mm/hr 0.00 in0.0 mm
05:25 AM 50.6°F10.3°C 46.6°F8.1°C 86% 5.0 mph NNW8.0 kmh NNW -- 29.89 in1012.2 mb 0.00 in0.0 mm 0.00 in/hr0.0 mm/hr 0.00 in0.0 mm
05:20 AM 50.6°F10.3°C 46.9°F8.3°C 87% 1.0 mph WSW1.6 kmh WSW -- 29.88 in1011.9 mb 0.00 in0.0 mm 0.00 in/hr0.0 mm/hr 0.00 in0.0 mm
05:15 AM 50.6°F10.3°C 46.9°F8.3°C 87% Calm Calm -- 29.88 in1011.9 mb 0.00 in0.0 mm 0.00 in/hr0.0 mm/hr 0.00 in0.0 mm
05:10 AM 50.7°F10.4°C 46.7°F8.2°C 86% Calm Calm -- 29.89 in1012.2 mb 0.00 in0.0 mm 0.00 in/hr0.0 mm/hr 0.00 in0.0 mm
05:05 AM 50.8°F10.4°C 46.8°F8.2°C 86% Calm Calm -- 29.88 in1011.9 mb 0.00 in0.0 mm 0.00 in/hr0.0 mm/hr 0.00 in0.0 mm
05:00 AM 50.9°F10.5°C 46.9°F8.3°C 86% Calm Calm -- 29.89 in1012.2 mb 0.00 in0.0 mm 0.00 in/hr0.0 mm/hr 0.00 in0.0 mm
04:55 AM 51.0°F10.6°C 47.0°F8.3°C 86% Calm Calm -- 29.88 in1011.9 mb 0.00 in0.0 mm 0.00 in/hr0.0 mm/hr 0.00 in0.0 mm
04:50 AM 51.0°F10.6°C 47.0°F8.3°C 86% Calm Calm -- 29.88 in1011.9 mb 0.00 in0.0 mm 0.00 in/hr0.0 mm/hr 0.00 in0.0 mm
04:45 AM 51.0°F10.6°C 47.3°F8.5°C 87% Calm Calm -- 29.88 in1011.9 mb 0.00 in0.0 mm 0.00 in/hr0.0 mm/hr 0.00 in0.0 mm
04:40 AM 51.1°F10.6°C 47.4°F8.6°C 87% Calm Calm -- 29.88 in1011.9 mb 0.00 in0.0 mm 0.00 in/hr0.0 mm/hr 0.00 in0.0 mm
04:35 AM 51.1°F10.6°C 47.4°F8.6°C 87% Calm Calm -- 29.88 in1011.9 mb 0.00 in0.0 mm 0.00 in/hr0.0 mm/hr 0.00 in0.0 mm
04:30 AM 51.2°F10.7°C 47.5°F8.6°C 87% Calm Calm -- 29.88 in1011.9 mb 0.00 in0.0 mm 0.00 in/hr0.0 mm/hr 0.00 in0.0 mm
04:25 AM 51.3°F10.7°C 47.3°F8.5°C 86% Calm Calm -- 29.88 in1011.9 mb 0.00 in0.0 mm 0.00 in/hr0.0 mm/hr 0.00 in0.0 mm
04:20 AM 51.4°F10.8°C 47.4°F8.6°C 86% Calm Calm -- 29.89 in1012.2 mb 0.00 in0.0 mm 0.00 in/hr0.0 mm/hr 0.00 in0.0 mm
04:15 AM 51.5°F10.8°C 47.5°F8.6°C 86% 8.0 mph WSW12.9 kmh WSW -- 29.88 in1011.9 mb 0.00 in0.0 mm 0.00 in/hr0.0 mm/hr 0.00 in0.0 mm
04:10 AM 51.5°F10.8°C 47.5°F8.6°C 86% Calm Calm -- 29.88 in1011.9 mb 0.00 in0.0 mm 0.00 in/hr0.0 mm/hr 0.00 in0.0 mm
04:05 AM 51.4°F10.8°C 47.4°F8.6°C 86% 1.0 mph WSW1.6 kmh WSW -- 29.88 in1011.9 mb 0.00 in0.0 mm 0.00 in/hr0.0 mm/hr 0.00 in0.0 mm
04:00 AM 51.4°F10.8°C 47.4°F8.6°C 86% Calm Calm -- 29.88 in1011.9 mb 0.00 in0.0 mm 0.00 in/hr0.0 mm/hr 0.00 in0.0 mm
03:55 AM 51.6°F10.9°C 47.3°F8.5°C 85% Calm Calm -- 29.89 in1012.2 mb 0.00 in0.0 mm 0.00 in/hr0.0 mm/hr 0.00 in0.0 mm
03:50 AM 51.7°F10.9°C 47.3°F8.5°C 85% 2.0 mph NNW3.2 kmh NNW -- 29.89 in1012.2 mb 0.00 in0.0 mm 0.00 in/hr0.0 mm/hr 0.00 in0.0 mm
03:45 AM 51.8°F11.0°C 47.4°F8.6°C 85% Calm Calm -- 29.89 in1012.2 mb 0.00 in0.0 mm 0.00 in/hr0.0 mm/hr 0.00 in0.0 mm
03:40 AM 52.0°F11.1°C 47.6°F8.7°C 85% Calm Calm -- 29.88 in1011.9 mb 0.00 in0.0 mm 0.00 in/hr0.0 mm/hr 0.00 in0.0 mm
03:35 AM 52.2°F11.2°C 47.8°F8.8°C 85% Calm Calm -- 29.88 in1011.9 mb 0.00 in0.0 mm 0.00 in/hr0.0 mm/hr 0.00 in0.0 mm
03:30 AM 52.5°F11.4°C 47.8°F8.8°C 84% Calm Calm -- 29.88 in1011.9 mb 0.00 in0.0 mm 0.00 in/hr0.0 mm/hr 0.00 in0.0 mm
03:25 AM 52.6°F11.4°C 47.9°F8.8°C 84% Calm Calm -- 29.88 in1011.9 mb 0.00 in0.0 mm 0.00 in/hr0.0 mm/hr 0.00 in0.0 mm
03:20 AM 52.7°F11.5°C 48.0°F8.9°C 84% Calm Calm -- 29.88 in1011.9 mb 0.00 in0.0 mm 0.00 in/hr0.0 mm/hr 0.00 in0.0 mm
03:15 AM 53.0°F11.7°C 48.3°F9.1°C 84% Calm Calm -- 29.88 in1011.9 mb 0.00 in0.0 mm 0.00 in/hr0.0 mm/hr 0.00 in0.0 mm
03:10 AM 53.2°F11.8°C 48.5°F9.2°C 84% 8.0 mph NW12.9 kmh NW -- 29.88 in1011.9 mb 0.00 in0.0 mm 0.00 in/hr0.0 mm/hr 0.00 in0.0 mm
03:05 AM 53.3°F11.8°C 48.9°F9.4°C 85% 4.0 mph NW6.4 kmh NW -- 29.88 in1011.9 mb 0.00 in0.0 mm 0.00 in/hr0.0 mm/hr 0.00 in0.0 mm
03:00 AM 53.6°F12.0°C 49.2°F9.6°C 85% Calm Calm -- 29.88 in1011.9 mb 0.00 in0.0 mm 0.00 in/hr0.0 mm/hr 0.00 in0.0 mm
02:55 AM 54.0°F12.2°C 49.6°F9.8°C 85% Calm Calm -- 29.88 in1011.9 mb 0.00 in0.0 mm 0.00 in/hr0.0 mm/hr 0.00 in0.0 mm
02:50 AM 54.4°F12.4°C 50.0°F10.0°C 85% Calm Calm -- 29.88 in1011.9 mb 0.00 in0.0 mm 0.00 in/hr0.0 mm/hr 0.00 in0.0 mm
02:45 AM 54.7°F12.6°C 50.0°F10.0°C 84% Calm Calm -- 29.88 in1011.9 mb 0.00 in0.0 mm 0.00 in/hr0.0 mm/hr 0.00 in0.0 mm
02:40 AM 54.9°F12.7°C 50.2°F10.1°C 84% Calm Calm -- 29.88 in1011.9 mb 0.00 in0.0 mm 0.00 in/hr0.0 mm/hr 0.00 in0.0 mm
02:35 AM 55.3°F12.9°C 50.6°F10.3°C 84% 1.0 mph WSW1.6 kmh WSW -- 29.88 in1011.9 mb 0.00 in0.0 mm 0.00 in/hr0.0 mm/hr 0.00 in0.0 mm
02:30 AM 55.5°F13.1°C 50.8°F10.4°C 84% Calm Calm -- 29.88 in1011.9 mb 0.00 in0.0 mm 0.00 in/hr0.0 mm/hr 0.00 in0.0 mm
02:25 AM 55.6°F13.1°C 50.9°F10.5°C 84% Calm Calm -- 29.88 in1011.9 mb 0.00 in0.0 mm 0.00 in/hr0.0 mm/hr 0.00 in0.0 mm
02:20 AM 55.7°F13.2°C 51.0°F10.6°C 84% 2.0 mph WSW3.2 kmh WSW -- 29.88 in1011.9 mb 0.00 in0.0 mm 0.00 in/hr0.0 mm/hr 0.00 in0.0 mm
02:15 AM 55.9°F13.3°C 51.1°F10.6°C 84% Calm Calm -- 29.88 in1011.9 mb 0.00 in0.0 mm 0.00 in/hr0.0 mm/hr 0.00 in0.0 mm
02:10 AM 56.1°F13.4°C 51.3°F10.7°C 84% Calm Calm -- 29.88 in1011.9 mb 0.00 in0.0 mm 0.00 in/hr0.0 mm/hr 0.00 in0.0 mm
02:05 AM 56.3°F13.5°C 51.2°F10.7°C 83% Calm Calm -- 29.88 in1011.9 mb 0.00 in0.0 mm 0.00 in/hr0.0 mm/hr 0.00 in0.0 mm
02:00 AM 56.4°F13.6°C 51.3°F10.7°C 83% Calm Calm -- 29.88 in1011.9 mb 0.00 in0.0 mm 0.00 in/hr0.0 mm/hr 0.00 in0.0 mm
01:55 AM 56.5°F13.6°C 51.4°F10.8°C 83% Calm Calm -- 29.88 in1011.9 mb 0.00 in0.0 mm 0.00 in/hr0.0 mm/hr 0.00 in0.0 mm
01:50 AM 56.5°F13.6°C 51.4°F10.8°C 83% 2.0 mph WSW3.2 kmh WSW -- 29.88 in1011.9 mb 0.00 in0.0 mm 0.00 in/hr0.0 mm/hr 0.00 in0.0 mm
01:45 AM 56.4°F13.6°C 51.6°F10.9°C 84% 1.0 mph WSW1.6 kmh WSW -- 29.88 in1011.9 mb 0.00 in0.0 mm 0.00 in/hr0.0 mm/hr 0.00 in0.0 mm
01:40 AM 56.4°F13.6°C 51.6°F10.9°C 84% 1.0 mph WSW1.6 kmh WSW -- 29.88 in1011.9 mb 0.00 in0.0 mm 0.00 in/hr0.0 mm/hr 0.00 in0.0 mm
01:35 AM 56.3°F13.5°C 51.5°F10.8°C 84% 5.0 mph WSW8.0 kmh WSW -- 29.88 in1011.9 mb 0.00 in0.0 mm 0.00 in/hr0.0 mm/hr 0.00 in0.0 mm
01:30 AM 56.2°F13.4°C 51.8°F11.0°C 85% 4.0 mph SW6.4 kmh SW -- 29.88 in1011.9 mb 0.00 in0.0 mm 0.00 in/hr0.0 mm/hr 0.00 in0.0 mm
01:25 AM 56.2°F13.4°C 51.4°F10.8°C 84% 3.0 mph WSW4.8 kmh WSW -- 29.89 in1012.2 mb 0.00 in0.0 mm 0.00 in/hr0.0 mm/hr 0.00 in0.0 mm
01:20 AM 56.3°F13.5°C 51.5°F10.8°C 84% 4.0 mph WSW6.4 kmh WSW -- 29.89 in1012.2 mb 0.00 in0.0 mm 0.00 in/hr0.0 mm/hr 0.00 in0.0 mm
01:15 AM 56.4°F13.6°C 51.6°F10.9°C 84% 2.0 mph WSW3.2 kmh WSW -- 29.89 in1012.2 mb 0.00 in0.0 mm 0.00 in/hr0.0 mm/hr 0.00 in0.0 mm
01:10 AM 56.4°F13.6°C 51.6°F10.9°C 84% Calm Calm -- 29.89 in1012.2 mb 0.00 in0.0 mm 0.00 in/hr0.0 mm/hr 0.00 in0.0 mm
01:05 AM 56.4°F13.6°C 51.6°F10.9°C 84% 2.0 mph WSW3.2 kmh WSW -- 29.89 in1012.2 mb 0.00 in0.0 mm 0.00 in/hr0.0 mm/hr 0.00 in0.0 mm
01:00 AM 56.4°F13.6°C 51.6°F10.9°C 84% Calm Calm -- 29.90 in1012.5 mb 0.00 in0.0 mm 0.00 in/hr0.0 mm/hr 0.00 in0.0 mm
12:55 AM 56.3°F13.5°C 51.9°F11.1°C 85% 2.0 mph WSW3.2 kmh WSW -- 29.90 in1012.5 mb 0.00 in0.0 mm 0.00 in/hr0.0 mm/hr 0.00 in0.0 mm
12:50 AM 56.3°F13.5°C 51.9°F11.1°C 85% 4.0 mph WSW6.4 kmh WSW -- 29.90 in1012.5 mb 0.00 in0.0 mm 0.00 in/hr0.0 mm/hr 0.00 in0.0 mm
12:45 AM 56.3°F13.5°C 51.9°F11.1°C 85% Calm Calm -- 29.90 in1012.5 mb 0.00 in0.0 mm 0.00 in/hr0.0 mm/hr 0.00 in0.0 mm
12:40 AM 56.3°F13.5°C 51.9°F11.1°C 85% 2.0 mph WSW3.2 kmh WSW -- 29.90 in1012.5 mb 0.00 in0.0 mm 0.00 in/hr0.0 mm/hr 0.00 in0.0 mm
12:35 AM 56.4°F13.6°C 52.0°F11.1°C 85% 3.0 mph WSW4.8 kmh WSW -- 29.90 in1012.5 mb 0.00 in0.0 mm 0.00 in/hr0.0 mm/hr 0.00 in0.0 mm
12:30 AM 56.5°F13.6°C 52.1°F11.2°C 85% 2.0 mph WSW3.2 kmh WSW -- 29.90 in1012.5 mb 0.00 in0.0 mm 0.00 in/hr0.0 mm/hr 0.00 in0.0 mm
12:25 AM 56.6°F13.7°C 52.2°F11.2°C 85% 10.0 mph SW16.1 kmh SW -- 29.90 in1012.5 mb 0.00 in0.0 mm 0.00 in/hr0.0 mm/hr 0.00 in0.0 mm
12:20 AM 56.7°F13.7°C 51.9°F11.1°C 84% 4.0 mph WSW6.4 kmh WSW -- 29.90 in1012.5 mb 0.00 in0.0 mm 0.00 in/hr0.0 mm/hr 0.00 in0.0 mm
12:15 AM 56.7°F13.7°C 51.9°F11.1°C 84% 10.0 mph SW16.1 kmh SW -- 29.90 in1012.5 mb 0.00 in0.0 mm 0.00 in/hr0.0 mm/hr 0.00 in0.0 mm
12:10 AM 56.8°F13.8°C 52.0°F11.1°C 84% 6.0 mph SW9.7 kmh SW -- 29.90 in1012.5 mb 0.00 in0.0 mm 0.00 in/hr0.0 mm/hr 0.00 in0.0 mm
12:05 AM 56.9°F13.8°C 52.1°F11.2°C 84% 1.0 mph SW1.6 kmh SW -- 29.90 in1012.5 mb 0.00 in0.0 mm 0.00 in/hr0.0 mm/hr 0.00 in0.0 mm
12:00 AM 57.0°F13.9°C 51.9°F11.1°C 83% 1.0 mph SW1.6 kmh SW -- 29.90 in1012.5 mb 0.00 in0.0 mm 0.00 in/hr0.0 mm/hr 0.00 in0.0 mm